Terminal Aerodrome Forecast
Issued by NWS Buffalo, NY

Home | Current Version | Previous Version | Text Only | Print | Product List | Glossary On
Versions: 1 2 3 4 5 6 7 8 9 10 11 12 13 14 15 16 17 18 19 20 21 22 23 24
000
FTUS41 KBUF 021451 AAA
TAFROC
TAF AMD
KROC 021451Z 0215/0312 24009KT P6SM BKN250
     FM021600 24012G18KT P6SM SCT080 SCT250
     FM022300 22010KT P6SM SCT120
     FM030300 20008KT P6SM BKN100
     FM030700 21012KT P6SM BKN110 WS020/23040KT
     FM031000 22014G20KT P6SM VCSH BKN040=

USA.gov is the U.S. government's official web portal to all federal, state and local government web resources and services.